createdAt,value
2022-12-16T00:01:55.153Z,27.77
2022-12-16T00:04:27.807Z,33.17
2022-12-16T00:06:56.532Z,33.53
2022-12-16T00:09:32.319Z,36.57
2022-12-16T00:12:00.325Z,32.40
2022-12-16T00:14:29.145Z,32.67
2022-12-16T00:16:59.698Z,29.77
2022-12-16T00:19:29.245Z,34.67
2022-12-16T00:21:57.353Z,35.43
2022-12-16T00:24:27.828Z,30.60
2022-12-16T00:27:06.863Z,35.30
2022-12-16T00:29:40.152Z,32.50
2022-12-16T00:32:09.095Z,28.77
2022-12-16T00:34:41.490Z,32.47
2022-12-16T00:37:11.094Z,36.17
2022-12-16T00:39:40.786Z,32.83
2022-12-16T00:42:08.970Z,39.37
2022-12-16T00:44:42.346Z,33.97
2022-12-16T00:47:10.727Z,32.20
2022-12-16T00:49:43.654Z,30.07
2022-12-16T00:52:12.380Z,35.20
2022-12-16T00:54:40.832Z,37.37
2022-12-16T00:57:09.368Z,34.13
2022-12-16T00:59:38.135Z,35.37
2022-12-16T01:02:11.798Z,34.80
2022-12-16T01:04:40.059Z,34.50
2022-12-16T01:07:10.418Z,35.57
2022-12-16T01:09:40.081Z,34.50
2022-12-16T01:12:10.988Z,32.77
2022-12-16T01:14:39.692Z,32.83
2022-12-16T01:17:08.201Z,30.73
2022-12-16T01:19:53.650Z,36.03
2022-12-16T01:22:32.149Z,29.57
2022-12-16T01:25:01.200Z,35.67
2022-12-16T01:27:29.745Z,36.80
2022-12-16T01:29:57.819Z,33.10
2022-12-16T01:32:26.326Z,37.37
2022-12-16T01:34:55.935Z,35.43
2022-12-16T01:37:24.909Z,36.77
2022-12-16T01:39:54.382Z,32.70
2022-12-16T01:45:36.745Z,33.53
2022-12-16T01:48:13.392Z,36.57
2022-12-16T01:50:41.880Z,36.00
2022-12-16T01:53:12.753Z,34.23
2022-12-16T01:58:07.239Z,29.57
2022-12-16T02:00:38.914Z,22.17
2022-12-16T02:03:08.439Z,33.97
2022-12-16T02:05:42.706Z,32.17
2022-12-16T02:08:24.153Z,26.87
2022-12-16T02:11:21.658Z,35.13
2022-12-16T02:14:22.186Z,35.97
2022-12-16T02:16:58.106Z,35.23
2022-12-16T02:19:51.255Z,33.73
2022-12-16T02:22:34.924Z,33.50
2022-12-16T02:25:33.824Z,34.57
2022-12-16T02:28:08.207Z,36.10
2022-12-16T02:31:05.283Z,35.47
2022-12-16T02:33:51.894Z,30.27
2022-12-16T02:36:43.238Z,37.00
2022-12-16T02:39:26.443Z,33.53
2022-12-16T02:42:01.561Z,30.80
2022-12-16T02:44:42.372Z,26.50
2022-12-16T02:47:11.854Z,30.97
2022-12-16T02:50:01.540Z,27.57
2022-12-16T02:52:32.098Z,32.63
2022-12-16T02:55:04.058Z,34.93
2022-12-16T02:57:51.739Z,29.90
2022-12-16T03:00:22.205Z,26.17
2022-12-16T03:03:00.763Z,27.23
2022-12-16T03:05:34.535Z,29.73
2022-12-16T03:08:06.949Z,30.47
2022-12-16T03:10:39.740Z,26.90
2022-12-16T03:13:15.889Z,31.43
2022-12-16T03:15:45.917Z,32.00
2022-12-16T03:18:23.272Z,30.53
2022-12-16T03:21:00.051Z,30.03
2022-12-16T03:23:32.905Z,35.07
2022-12-16T03:26:10.442Z,28.80
2022-12-16T03:29:00.857Z,27.63
2022-12-16T03:34:32.518Z,32.17
2022-12-16T03:37:11.121Z,29.50
2022-12-16T03:39:42.153Z,24.20
2022-12-16T03:42:11.633Z,25.87
2022-12-16T03:44:42.977Z,25.87
2022-12-16T03:47:11.418Z,27.90
2022-12-16T03:49:41.424Z,27.20
2022-12-16T03:52:10.117Z,26.57
2022-12-16T03:54:38.359Z,28.83
2022-12-16T03:57:11.766Z,26.40
2022-12-16T03:59:52.265Z,27.60
2022-12-16T04:02:40.868Z,28.70
2022-12-16T04:05:12.842Z,25.93
2022-12-16T04:07:41.723Z,26.70
2022-12-16T04:10:10.871Z,27.43
2022-12-16T04:12:56.918Z,28.30
2022-12-16T04:15:42.886Z,27.10
2022-12-16T04:18:36.952Z,24.80
2022-12-16T04:24:27.109Z,25.87
2022-12-16T04:27:15.710Z,24.60
2022-12-16T04:29:58.358Z,27.73
2022-12-16T04:32:27.252Z,25.37
2022-12-16T04:34:55.579Z,25.07
2022-12-16T04:37:42.944Z,25.87
2022-12-16T04:40:29.751Z,29.67
2022-12-16T04:43:15.764Z,22.13
2022-12-16T04:46:05.503Z,22.93
2022-12-16T04:49:01.056Z,22.10
2022-12-16T04:51:51.442Z,27.83
2022-12-16T04:54:42.857Z,23.90
2022-12-16T04:57:42.125Z,24.77
2022-12-16T05:00:28.636Z,22.37
2022-12-16T05:03:17.364Z,18.73
2022-12-16T05:06:03.219Z,26.80
2022-12-16T05:08:51.873Z,19.57
2022-12-16T05:11:42.048Z,22.27
2022-12-16T05:14:28.064Z,23.30
2022-12-16T05:17:13.747Z,23.43
2022-12-16T05:19:59.486Z,26.00
2022-12-16T05:22:47.427Z,21.43
2022-12-16T05:25:33.533Z,23.40
2022-12-16T05:28:23.719Z,20.03
2022-12-16T05:31:09.733Z,20.17
2022-12-16T05:33:58.250Z,21.73
2022-12-16T05:36:43.944Z,21.17
2022-12-16T05:39:31.405Z,23.17
2022-12-16T05:42:18.524Z,22.37
2022-12-16T05:45:08.106Z,22.57
2022-12-16T05:48:05.690Z,21.00
2022-12-16T05:50:51.051Z,21.07
2022-12-16T05:53:36.556Z,21.73
2022-12-16T05:56:25.983Z,18.17
2022-12-16T05:59:11.736Z,20.90
2022-12-16T06:02:01.551Z,19.33
2022-12-16T06:04:51.066Z,16.57
2022-12-16T06:07:36.746Z,17.10
2022-12-16T06:10:24.674Z,18.40
2022-12-16T06:13:12.516Z,25.90
2022-12-16T06:15:57.964Z,18.87
2022-12-16T06:18:55.373Z,17.13
2022-12-16T06:21:48.427Z,16.30
2022-12-16T06:24:35.164Z,17.87
2022-12-16T06:27:21.617Z,15.77
2022-12-16T06:30:07.892Z,16.57
2022-12-16T06:32:54.097Z,17.63
2022-12-16T06:35:41.154Z,17.00
2022-12-16T06:38:26.819Z,18.67
2022-12-16T06:41:12.985Z,18.40
2022-12-16T06:44:01.413Z,13.50
2022-12-16T06:46:52.390Z,23.70
2022-12-16T06:49:41.139Z,16.53
2022-12-16T06:52:30.267Z,20.97
2022-12-16T06:55:19.357Z,22.77
2022-12-16T06:58:10.101Z,17.93
2022-12-16T07:01:01.385Z,15.60
2022-12-16T07:03:53.594Z,19.13
2022-12-16T07:06:55.810Z,16.27
2022-12-16T07:09:42.845Z,15.80
2022-12-16T07:12:28.624Z,17.77
2022-12-16T07:15:25.387Z,15.80
2022-12-16T07:18:13.939Z,16.13
2022-12-16T07:20:59.776Z,20.60
2022-12-16T07:23:45.865Z,20.83
2022-12-16T07:26:33.079Z,19.60
2022-12-16T07:29:22.257Z,19.07
2022-12-16T07:32:12.886Z,16.53
2022-12-16T07:35:01.402Z,18.37
2022-12-16T07:37:58.215Z,17.23
2022-12-16T07:40:56.956Z,15.97
2022-12-16T07:43:43.533Z,14.93
2022-12-16T07:46:28.860Z,12.33
2022-12-16T07:49:16.431Z,17.10
2022-12-16T07:52:03.965Z,17.33
2022-12-16T07:54:52.106Z,18.93
2022-12-16T07:57:52.904Z,17.73
2022-12-16T08:00:42.341Z,22.07
2022-12-16T08:03:30.568Z,20.47
2022-12-16T08:06:19.197Z,21.17
2022-12-16T08:09:19.686Z,16.90
2022-12-16T08:12:06.269Z,20.40
2022-12-16T08:14:51.717Z,21.00
2022-12-16T08:17:50.259Z,18.60
2022-12-16T08:20:43.601Z,20.17
2022-12-16T08:23:30.248Z,16.03
2022-12-16T08:26:19.024Z,20.23
2022-12-16T08:29:43.853Z,18.17
2022-12-16T08:32:23.365Z,17.03
2022-12-16T08:39:30.262Z,15.77
2022-12-16T08:42:17.263Z,17.53
2022-12-16T08:45:03.579Z,15.73
2022-12-16T08:47:52.730Z,14.80
2022-12-16T08:50:43.215Z,13.13
2022-12-16T08:53:28.837Z,15.93
2022-12-16T08:56:14.622Z,14.70
2022-12-16T08:59:01.582Z,16.23
2022-12-16T09:02:07.085Z,12.40
2022-12-16T09:08:03.370Z,11.50
2022-12-16T09:10:52.106Z,14.33
2022-12-16T09:13:43.450Z,14.47
2022-12-16T09:16:34.648Z,12.57
2022-12-16T09:19:37.606Z,14.07
2022-12-16T09:22:23.291Z,10.10
2022-12-16T09:25:14.795Z,9.83
2022-12-16T09:28:00.960Z,7.23
2022-12-16T09:30:50.572Z,8.53
2022-12-16T09:33:37.986Z,8.23
2022-12-16T09:36:24.232Z,9.70
2022-12-16T09:39:12.638Z,8.23
2022-12-16T09:42:03.996Z,7.87
2022-12-16T09:45:02.325Z,7.07
2022-12-16T09:47:56.547Z,7.57
2022-12-16T09:50:45.245Z,6.80
2022-12-16T09:53:33.826Z,7.13
2022-12-16T09:56:22.171Z,6.93
2022-12-16T09:59:16.322Z,6.60
2022-12-16T10:02:03.000Z,9.73
2022-12-16T10:04:51.017Z,7.40
2022-12-16T10:07:42.629Z,4.90
2022-12-16T10:10:38.517Z,6.37
2022-12-16T10:13:37.425Z,5.13
2022-12-16T10:16:42.528Z,5.60
2022-12-16T10:19:38.521Z,5.43
2022-12-16T10:22:50.737Z,5.90
2022-12-16T10:25:54.089Z,5.90
2022-12-16T10:29:01.622Z,7.30
2022-12-16T10:31:47.754Z,8.20
2022-12-16T10:38:02.236Z,6.97
2022-12-16T10:40:55.472Z,6.70
2022-12-16T10:43:56.194Z,5.10
2022-12-16T10:46:51.690Z,7.60
2022-12-16T10:49:38.485Z,6.00
2022-12-16T10:52:36.798Z,5.43
2022-12-16T10:55:42.526Z,7.33
2022-12-16T10:58:52.384Z,5.47
2022-12-16T11:04:56.746Z,7.30
2022-12-16T11:08:11.701Z,6.63
2022-12-16T11:11:00.810Z,7.67
2022-12-16T11:13:48.123Z,12.60
2022-12-16T11:16:40.712Z,9.90
2022-12-16T11:19:53.804Z,8.63
2022-12-16T11:22:41.764Z,10.17
2022-12-16T11:25:34.098Z,11.57
2022-12-16T11:28:32.917Z,14.77
2022-12-16T11:31:31.652Z,10.43
2022-12-16T11:34:23.244Z,13.50
2022-12-16T11:37:20.997Z,11.50
2022-12-16T11:40:10.290Z,13.23
2022-12-16T11:43:01.416Z,14.23
2022-12-16T11:45:56.693Z,14.23
2022-12-16T11:48:51.747Z,16.80
2022-12-16T11:52:03.775Z,14.20
2022-12-16T11:55:15.644Z,16.47
2022-12-16T11:58:17.668Z,15.73
2022-12-16T12:01:10.218Z,22.20
2022-12-16T12:04:04.641Z,14.30
2022-12-16T12:07:10.785Z,12.07
2022-12-16T12:10:08.377Z,13.10
2022-12-16T12:13:02.389Z,13.63
2022-12-16T12:15:56.061Z,16.90
2022-12-16T12:18:57.087Z,14.87
2022-12-16T12:21:45.566Z,14.03
2022-12-16T12:24:45.931Z,16.60
2022-12-16T12:27:45.526Z,14.00
2022-12-16T12:30:37.366Z,15.43
2022-12-16T12:33:53.632Z,15.63
2022-12-16T12:36:52.883Z,14.67
2022-12-16T12:39:56.330Z,12.87
2022-12-16T12:42:56.235Z,16.60
2022-12-16T12:46:13.784Z,15.07
2022-12-16T12:49:08.238Z,13.77
2022-12-16T12:52:05.407Z,15.83
2022-12-16T12:55:02.813Z,14.60
2022-12-16T12:57:52.507Z,13.87
2022-12-16T13:00:41.321Z,15.23
2022-12-16T13:03:42.818Z,15.97
2022-12-16T13:06:38.919Z,19.13
2022-12-16T13:09:44.915Z,14.83
2022-12-16T13:15:57.347Z,16.07
2022-12-16T13:18:46.359Z,15.70
2022-12-16T13:22:05.776Z,17.90
2022-12-16T13:25:06.538Z,15.17
2022-12-16T13:28:21.041Z,17.80
2022-12-16T13:31:25.546Z,17.30
2022-12-16T13:34:13.663Z,18.53
2022-12-16T13:37:00.461Z,16.43
2022-12-16T13:39:53.572Z,18.00
2022-12-16T13:43:10.420Z,16.67
2022-12-16T13:45:59.103Z,16.13
2022-12-16T13:48:52.264Z,16.50
2022-12-16T13:52:22.001Z,17.40
2022-12-16T13:55:30.113Z,19.10
2022-12-16T13:58:26.655Z,16.57
2022-12-16T14:01:25.626Z,18.57
2022-12-16T14:04:26.724Z,21.33
2022-12-16T14:07:16.657Z,17.27
2022-12-16T14:10:07.745Z,16.60
2022-12-16T14:13:25.292Z,18.47
2022-12-16T14:16:20.165Z,19.57
2022-12-16T14:19:22.052Z,18.40
2022-12-16T14:22:17.985Z,18.27
2022-12-16T14:25:06.259Z,19.23
2022-12-16T14:27:54.985Z,18.93
2022-12-16T14:30:55.356Z,19.67
2022-12-16T14:33:50.401Z,18.13
2022-12-16T14:36:57.190Z,18.70
2022-12-16T14:39:51.175Z,18.90
2022-12-16T14:42:45.457Z,19.80
2022-12-16T14:45:55.397Z,18.23
2022-12-16T14:48:55.023Z,19.73
2022-12-16T14:51:45.749Z,18.23
2022-12-16T14:54:53.509Z,21.17
2022-12-16T14:57:45.589Z,24.57
2022-12-16T15:00:35.104Z,22.33
2022-12-16T15:03:29.899Z,21.53
2022-12-16T15:06:23.359Z,19.80
2022-12-16T15:09:15.123Z,23.77
2022-12-16T15:12:02.868Z,19.27
2022-12-16T15:14:50.904Z,19.90
2022-12-16T15:17:41.603Z,20.73
2022-12-16T15:20:35.957Z,20.47
2022-12-16T15:23:29.275Z,21.40
2022-12-16T15:26:24.787Z,22.70
2022-12-16T15:29:12.696Z,18.77
2022-12-16T15:32:03.204Z,24.60
2022-12-16T15:35:08.108Z,21.10
2022-12-16T15:38:03.822Z,21.30
2022-12-16T15:41:10.557Z,22.97
2022-12-16T15:43:58.548Z,22.47
2022-12-16T15:46:50.906Z,19.33
2022-12-16T15:49:53.473Z,20.43
2022-12-16T15:52:54.256Z,18.70
2022-12-16T15:55:50.199Z,21.33
2022-12-16T15:58:49.197Z,20.73
2022-12-16T16:01:44.674Z,20.03
2022-12-16T16:04:36.983Z,19.20
2022-12-16T16:07:23.178Z,19.70
2022-12-16T16:10:24.931Z,19.60
2022-12-16T16:13:11.011Z,21.50
2022-12-16T16:15:58.542Z,22.17
2022-12-16T16:18:53.555Z,23.13
2022-12-16T16:21:39.458Z,23.43
2022-12-16T16:24:25.765Z,34.03
2022-12-16T16:27:15.369Z,27.07
2022-12-16T16:30:15.126Z,34.47
2022-12-16T16:33:10.935Z,28.63
2022-12-16T16:36:01.641Z,25.27
2022-12-16T16:38:51.751Z,23.63
2022-12-16T16:41:41.900Z,26.57
2022-12-16T16:44:35.091Z,23.47
2022-12-16T16:47:23.440Z,28.97
2022-12-16T16:50:16.069Z,23.17
2022-12-16T16:53:10.479Z,34.30
2022-12-16T16:55:55.565Z,26.00
2022-12-16T16:58:54.108Z,23.30
2022-12-16T17:01:42.464Z,24.83
2022-12-16T17:04:31.635Z,24.40
2022-12-16T17:07:17.583Z,28.53
2022-12-16T17:10:05.572Z,25.83
2022-12-16T17:12:51.521Z,30.90
2022-12-16T17:15:41.148Z,29.33
2022-12-16T17:18:29.692Z,26.53
2022-12-16T17:21:16.979Z,29.40
2022-12-16T17:24:05.480Z,27.63
2022-12-16T17:26:51.442Z,28.80
2022-12-16T17:29:42.845Z,30.43
2022-12-16T17:32:29.536Z,36.87
2022-12-16T17:35:16.359Z,29.43
2022-12-16T17:38:03.402Z,28.80
2022-12-16T17:40:57.010Z,34.07
2022-12-16T17:43:45.690Z,29.00
2022-12-16T17:46:31.511Z,27.90
2022-12-16T17:49:15.733Z,28.57
2022-12-16T17:52:08.079Z,26.80
2022-12-16T17:54:56.029Z,28.93
2022-12-16T17:57:42.344Z,27.00
2022-12-16T18:00:29.123Z,27.77
2022-12-16T18:03:15.011Z,23.87
2022-12-16T18:06:02.572Z,27.27
2022-12-16T18:08:53.341Z,28.10
2022-12-16T18:11:42.731Z,27.00
2022-12-16T18:14:31.446Z,27.23
2022-12-16T18:17:22.637Z,35.13
2022-12-16T18:20:15.989Z,27.90
2022-12-16T18:23:01.606Z,30.77
2022-12-16T18:25:47.763Z,32.40
2022-12-16T18:28:40.479Z,27.97
2022-12-16T18:31:35.388Z,29.37
2022-12-16T18:34:38.381Z,30.47
2022-12-16T18:37:30.455Z,32.97
2022-12-16T18:43:30.795Z,30.20
2022-12-16T18:46:20.832Z,33.27
2022-12-16T18:49:11.712Z,31.73
2022-12-16T18:51:58.806Z,30.73
2022-12-16T18:55:02.107Z,29.50
2022-12-16T18:58:08.980Z,30.90
2022-12-16T19:01:04.626Z,34.10
2022-12-16T19:03:53.639Z,36.57
2022-12-16T19:06:59.530Z,33.00
2022-12-16T19:09:44.716Z,31.70
2022-12-16T19:12:30.253Z,36.40
2022-12-16T19:15:15.537Z,32.63
2022-12-16T19:18:08.732Z,37.77
2022-12-16T19:20:56.865Z,31.70
2022-12-16T19:23:53.844Z,33.40
2022-12-16T19:26:46.256Z,34.97
2022-12-16T19:29:31.825Z,31.33
2022-12-16T19:32:27.654Z,29.90
2022-12-16T19:35:13.746Z,34.93
2022-12-16T19:38:02.902Z,30.53
2022-12-16T19:40:50.719Z,33.43
2022-12-16T19:43:40.883Z,35.43
2022-12-16T19:46:29.640Z,30.77
2022-12-16T19:49:22.275Z,32.90
2022-12-16T19:52:08.551Z,28.73
2022-12-16T19:55:02.452Z,33.57
2022-12-16T19:57:51.580Z,37.67
2022-12-16T20:00:55.214Z,34.03
2022-12-16T20:03:42.896Z,38.37
2022-12-16T20:06:31.367Z,35.30
2022-12-16T20:09:17.148Z,35.70
2022-12-16T20:12:05.519Z,36.63
2022-12-16T20:14:52.238Z,37.57
2022-12-16T20:17:39.757Z,34.90
2022-12-16T20:20:25.778Z,35.00
2022-12-16T20:23:14.860Z,39.03
2022-12-16T20:26:03.378Z,37.00
2022-12-16T20:28:53.758Z,37.83
2022-12-16T20:31:44.043Z,37.67
2022-12-16T20:34:36.546Z,34.27
2022-12-16T20:37:52.854Z,36.43
2022-12-16T20:40:42.256Z,36.37
2022-12-16T20:43:30.871Z,43.83
2022-12-16T20:46:23.527Z,42.90
2022-12-16T20:49:12.708Z,40.93
2022-12-16T20:51:58.887Z,39.10
2022-12-16T20:54:44.854Z,40.80
2022-12-16T20:57:35.953Z,39.43
2022-12-16T21:00:24.560Z,35.77
2022-12-16T21:03:11.481Z,38.93
2022-12-16T21:06:00.094Z,35.97
2022-12-16T21:08:45.634Z,41.20
2022-12-16T21:11:32.074Z,37.57
2022-12-16T21:14:22.521Z,36.47
2022-12-16T21:17:11.693Z,42.97
2022-12-16T21:20:01.386Z,43.20
2022-12-16T21:22:50.251Z,40.47
2022-12-16T21:25:35.545Z,38.43
2022-12-16T21:28:24.850Z,41.70
2022-12-16T21:31:10.380Z,39.23
2022-12-16T21:33:56.152Z,41.40
2022-12-16T21:36:43.204Z,42.57
2022-12-16T21:39:25.235Z,41.53
2022-12-16T21:42:11.454Z,43.47
2022-12-16T21:44:59.052Z,40.83
2022-12-16T21:47:44.490Z,34.60
2022-12-16T21:50:30.047Z,39.80
2022-12-16T21:53:17.158Z,41.80
2022-12-16T21:56:02.974Z,38.53
2022-12-16T21:58:49.875Z,43.17
2022-12-16T22:01:35.899Z,40.40
2022-12-16T22:07:32.581Z,38.93
2022-12-16T22:10:20.583Z,41.60
2022-12-16T22:13:14.455Z,42.30
2022-12-16T22:16:02.587Z,43.10
2022-12-16T22:18:53.859Z,38.03
2022-12-16T22:21:42.842Z,40.63
2022-12-16T22:24:36.941Z,37.97
2022-12-16T22:27:24.084Z,34.83
2022-12-16T22:30:09.566Z,35.57
2022-12-16T22:32:58.274Z,32.83
2022-12-16T22:35:44.392Z,39.83
2022-12-16T22:38:31.910Z,39.60
2022-12-16T22:41:25.807Z,34.27
2022-12-16T22:44:29.312Z,41.23
2022-12-16T22:47:25.091Z,35.00
2022-12-16T22:50:13.919Z,34.27
2022-12-16T22:53:01.969Z,36.23
2022-12-16T22:55:50.543Z,34.57
2022-12-16T22:58:36.081Z,38.47
2022-12-16T23:01:27.091Z,34.67
2022-12-16T23:04:15.416Z,37.13
2022-12-16T23:07:01.733Z,38.50
2022-12-16T23:09:51.129Z,35.73
2022-12-16T23:12:39.151Z,37.50
2022-12-16T23:15:26.413Z,36.37
2022-12-16T23:18:16.231Z,37.80
2022-12-16T23:21:10.659Z,36.90
2022-12-16T23:23:56.752Z,37.53
2022-12-16T23:28:55.416Z,34.87
2022-12-16T23:31:42.831Z,35.30
2022-12-16T23:34:31.734Z,35.27
2022-12-16T23:37:19.156Z,38.77
2022-12-16T23:40:09.883Z,34.50
2022-12-16T23:42:57.627Z,35.93
2022-12-16T23:45:46.419Z,34.10
2022-12-16T23:48:32.366Z,34.27
2022-12-16T23:51:24.136Z,37.03
2022-12-16T23:57:23.503Z,33.20
